createdAt,value
2018-12-22T00:01:06.114Z,99809.53
2018-12-22T00:03:40.005Z,99812.00
2018-12-22T00:06:11.855Z,99816.11
2018-12-22T00:08:43.975Z,99817.28
2018-12-22T00:11:17.230Z,99818.31
2018-12-22T00:13:49.119Z,99824.78
2018-12-22T00:16:21.237Z,99826.78
2018-12-22T00:18:53.694Z,99834.86
2018-12-22T00:21:25.707Z,99830.98
2018-12-22T00:23:58.786Z,99836.55
2018-12-22T00:26:31.706Z,99841.99
2018-12-22T00:29:04.301Z,99847.39
2018-12-22T00:31:36.653Z,99851.21
2018-12-22T00:34:08.664Z,99855.97
2018-12-22T00:36:41.737Z,99857.98
2018-12-22T00:39:13.549Z,99864.08
2018-12-22T00:41:45.295Z,99858.95
2018-12-22T00:44:17.151Z,99860.20
2018-12-22T00:46:49.429Z,99861.68
2018-12-22T00:49:21.768Z,99865.86
2018-12-22T00:51:53.548Z,99868.08
2018-12-22T00:54:25.628Z,99869.06
2018-12-22T00:56:57.447Z,99870.34
2018-12-22T00:59:29.132Z,99871.61
2018-12-22T01:02:02.604Z,99873.82
2018-12-22T01:04:34.383Z,99885.13
2018-12-22T01:07:09.403Z,99880.78
2018-12-22T01:09:41.546Z,99889.09
2018-12-22T01:12:13.367Z,99894.75
2018-12-22T01:14:46.838Z,99891.63
2018-12-22T01:17:22.100Z,99896.47
2018-12-22T01:19:54.018Z,99896.92
2018-12-22T01:22:25.610Z,99905.82
2018-12-22T01:24:57.309Z,99902.06
2018-12-22T01:27:28.990Z,99903.48
2018-12-22T01:30:00.965Z,99906.03
2018-12-22T01:32:33.648Z,99904.61
2018-12-22T01:35:05.655Z,99901.95
2018-12-22T01:37:37.653Z,99904.56
2018-12-22T01:40:09.788Z,99902.53
2018-12-22T01:42:41.735Z,99908.13
2018-12-22T01:45:13.497Z,99907.67
2018-12-22T01:47:45.622Z,99908.23
2018-12-22T01:50:17.768Z,99913.11
2018-12-22T01:52:51.129Z,99915.00
2018-12-22T01:55:22.779Z,99920.91
2018-12-22T01:57:54.986Z,99921.70
2018-12-22T02:00:28.003Z,99926.52
2018-12-22T02:03:00.021Z,99926.50
2018-12-22T02:05:32.003Z,99933.34
2018-12-22T02:08:05.069Z,99933.78
2018-12-22T02:10:37.036Z,99940.37
2018-12-22T02:13:08.952Z,99944.31
2018-12-22T02:15:45.320Z,99946.37
2018-12-22T02:18:21.671Z,99956.52
2018-12-22T02:20:53.472Z,99955.96
2018-12-22T02:23:25.452Z,99965.23
2018-12-22T02:25:57.278Z,99971.06
2018-12-22T02:28:29.374Z,99974.89
2018-12-22T02:31:02.084Z,99972.20
2018-12-22T02:33:34.816Z,99974.96
2018-12-22T02:36:06.822Z,99985.61
2018-12-22T02:38:38.576Z,99986.33
2018-12-22T02:41:10.429Z,99986.36
2018-12-22T02:43:42.474Z,99987.09
2018-12-22T02:46:14.101Z,99990.00
2018-12-22T02:48:46.231Z,99988.59
2018-12-22T02:51:18.066Z,99992.35
2018-12-22T02:53:50.552Z,99991.94
2018-12-22T02:56:21.971Z,99996.67
2018-12-22T02:58:53.836Z,99998.37
2018-12-22T03:01:25.428Z,99996.10
2018-12-22T03:03:58.703Z,99998.27
2018-12-22T03:06:35.598Z,100008.05
2018-12-22T03:09:08.126Z,100011.38
2018-12-22T03:11:45.476Z,100018.55
2018-12-22T03:14:17.387Z,100024.28
2018-12-22T03:16:49.232Z,100025.06
2018-12-22T03:19:21.187Z,100029.66
2018-12-22T03:21:53.146Z,100032.98
2018-12-22T03:24:24.944Z,100041.93
2018-12-22T03:26:57.116Z,100040.63
2018-12-22T03:29:30.576Z,100047.83
2018-12-22T03:32:02.233Z,100052.89
2018-12-22T03:34:34.891Z,100059.66
2018-12-22T03:37:06.564Z,100068.20
2018-12-22T03:39:46.475Z,100078.06
2018-12-22T03:42:18.111Z,100079.45
2018-12-22T03:44:49.882Z,100075.47
2018-12-22T03:47:25.643Z,100082.56
2018-12-22T03:49:57.809Z,100082.45
2018-12-22T03:52:30.083Z,100086.32
2018-12-22T03:55:01.936Z,100088.05
2018-12-22T03:57:33.505Z,100093.17
2018-12-22T04:00:09.540Z,100098.00
2018-12-22T04:02:41.330Z,100099.22
2018-12-22T04:05:13.510Z,100099.13
2018-12-22T04:07:45.273Z,100099.92
2018-12-22T04:10:17.210Z,100098.93
2018-12-22T04:12:48.670Z,100101.87
2018-12-22T04:15:21.327Z,100099.25
2018-12-22T04:17:53.063Z,100097.31
2018-12-22T04:20:24.853Z,100100.30
2018-12-22T04:22:58.698Z,100093.75
2018-12-22T04:25:30.413Z,100091.95
2018-12-22T04:28:02.791Z,100096.29
2018-12-22T04:30:34.782Z,100094.97
2018-12-22T04:33:07.878Z,100102.56
2018-12-22T04:35:40.954Z,100107.39
2018-12-22T04:38:13.211Z,100100.82
2018-12-22T04:40:46.443Z,100100.38
2018-12-22T04:43:18.252Z,100100.23
2018-12-22T04:45:54.370Z,100098.82
2018-12-22T04:48:26.729Z,100091.44
2018-12-22T04:50:58.835Z,100089.97
2018-12-22T04:53:30.659Z,100083.48
2018-12-22T04:56:02.804Z,100081.23
2018-12-22T04:58:34.905Z,100081.17
2018-12-22T05:01:06.872Z,100079.63
2018-12-22T05:03:41.073Z,100083.53
2018-12-22T05:08:53.380Z,100075.91
2018-12-22T05:11:25.456Z,100075.33
2018-12-22T05:13:57.160Z,100074.13
2018-12-22T05:16:28.824Z,100066.14
2018-12-22T05:19:00.754Z,100069.12
2018-12-22T05:21:32.915Z,100060.44
2018-12-22T05:24:05.051Z,100066.23
2018-12-22T05:26:38.316Z,100065.03
2018-12-22T05:29:10.647Z,100058.37
2018-12-22T05:31:43.420Z,100058.27
2018-12-22T05:34:15.399Z,100057.31
2018-12-22T05:36:48.251Z,100052.42
2018-12-22T05:39:21.695Z,100045.52
2018-12-22T05:41:53.530Z,100052.53
2018-12-22T05:44:25.227Z,100045.76
2018-12-22T05:49:31.605Z,100048.42
2018-12-22T05:52:03.992Z,100049.38
2018-12-22T05:54:38.735Z,100037.64
2018-12-22T05:57:10.509Z,100040.72
2018-12-22T05:59:42.661Z,100038.33
2018-12-22T06:02:14.550Z,100046.63
2018-12-22T06:04:46.528Z,100049.09
2018-12-22T06:07:18.973Z,100043.19
2018-12-22T06:09:50.857Z,100042.15
2018-12-22T06:12:24.907Z,100041.21
2018-12-22T06:14:57.119Z,100041.34
2018-12-22T06:17:29.094Z,100039.92
2018-12-22T06:20:02.545Z,100030.42
2018-12-22T06:22:34.529Z,100028.13
2018-12-22T06:25:06.970Z,100027.78
2018-12-22T06:27:38.879Z,100030.77
2018-12-22T06:30:12.044Z,100031.70
2018-12-22T06:32:44.125Z,100024.75
2018-12-22T06:35:16.133Z,100018.83
2018-12-22T06:37:48.536Z,100010.66
2018-12-22T06:40:23.369Z,100015.18
2018-12-22T06:42:55.364Z,100003.48
2018-12-22T06:45:27.702Z,100000.36
2018-12-22T06:47:59.183Z,99995.88
2018-12-22T06:50:31.405Z,99999.11
2018-12-22T06:53:03.479Z,99994.17
2018-12-22T06:55:35.597Z,99988.13
2018-12-22T06:58:07.531Z,99983.67
2018-12-22T07:00:39.560Z,99977.89
2018-12-22T07:03:11.483Z,99974.89
2018-12-22T07:05:47.728Z,99973.34
2018-12-22T07:08:20.209Z,99965.19
2018-12-22T07:10:52.129Z,99960.52
2018-12-22T07:13:24.561Z,99949.16
2018-12-22T07:15:56.726Z,99939.09
2018-12-22T07:18:29.735Z,99936.95
2018-12-22T07:21:02.526Z,99930.22
2018-12-22T07:23:34.353Z,99917.22
2018-12-22T07:26:06.584Z,99913.48
2018-12-22T07:28:38.278Z,99910.06
2018-12-22T07:31:10.451Z,99903.70
2018-12-22T07:33:42.482Z,99912.09
2018-12-22T07:36:14.341Z,99902.98
2018-12-22T07:38:46.481Z,99903.07
2018-12-22T07:41:18.388Z,99891.30
2018-12-22T07:43:50.154Z,99888.64
2018-12-22T07:48:58.040Z,99892.39
2018-12-22T07:51:30.281Z,99884.34
2018-12-22T07:54:02.356Z,99880.92
2018-12-22T07:56:34.092Z,99880.19
2018-12-22T07:59:06.024Z,99877.49
2018-12-22T08:01:42.343Z,99872.70
2018-12-22T08:04:13.989Z,99876.18
2018-12-22T08:06:45.681Z,99868.23
2018-12-22T08:09:17.635Z,99863.30
2018-12-22T08:11:53.032Z,99862.23
2018-12-22T08:14:25.083Z,99855.72
2018-12-22T08:16:56.693Z,99853.69
2018-12-22T08:19:28.867Z,99847.89
2018-12-22T08:22:03.113Z,99851.47
2018-12-22T08:24:34.808Z,99847.41
2018-12-22T08:27:06.922Z,99855.04
2018-12-22T08:29:40.050Z,99847.97
2018-12-22T08:32:11.648Z,99847.95
2018-12-22T08:34:43.240Z,99845.98
2018-12-22T08:37:15.399Z,99835.38
2018-12-22T08:39:47.636Z,99828.81
2018-12-22T08:42:19.756Z,99825.12
2018-12-22T08:44:51.562Z,99826.81
2018-12-22T08:47:23.430Z,99826.32
2018-12-22T08:49:55.199Z,99831.55
2018-12-22T08:52:27.661Z,99836.14
2018-12-22T08:54:59.431Z,99827.95
2018-12-22T08:57:32.007Z,99828.44
2018-12-22T09:00:03.867Z,99825.41
2018-12-22T09:02:38.473Z,99823.13
2018-12-22T09:05:10.614Z,99819.64
2018-12-22T09:07:42.696Z,99825.86
2018-12-22T09:10:14.858Z,99818.27
2018-12-22T09:12:46.952Z,99819.81
2018-12-22T09:15:18.585Z,99822.56
2018-12-22T09:17:50.178Z,99826.19
2018-12-22T09:20:22.271Z,99817.91
2018-12-22T09:22:54.182Z,99817.14
2018-12-22T09:25:27.593Z,99824.88
2018-12-22T09:27:59.324Z,99818.73
2018-12-22T09:30:32.144Z,99821.23
2018-12-22T09:33:04.299Z,99820.61
2018-12-22T09:35:36.753Z,99823.02
2018-12-22T09:38:08.534Z,99826.97
2018-12-22T09:40:40.600Z,99824.68
2018-12-22T09:43:13.412Z,99819.11
2018-12-22T09:45:45.390Z,99817.00
2018-12-22T09:48:17.628Z,99815.14
2018-12-22T09:50:49.995Z,99814.73
2018-12-22T09:53:21.749Z,99814.17
2018-12-22T09:55:53.395Z,99811.84
2018-12-22T09:58:25.151Z,99812.81
2018-12-22T10:00:56.616Z,99820.55
2018-12-22T10:03:28.744Z,99810.77
2018-12-22T10:06:00.374Z,99823.42
2018-12-22T10:08:32.058Z,99816.39
2018-12-22T10:11:05.971Z,99803.84
2018-12-22T10:13:39.801Z,99815.89
2018-12-22T10:16:11.674Z,99810.58
2018-12-22T10:18:43.402Z,99815.64
2018-12-22T10:21:15.259Z,99818.09
2018-12-22T10:23:49.722Z,99815.98
2018-12-22T10:26:21.701Z,99817.83
2018-12-22T10:28:53.434Z,99810.97
2018-12-22T10:31:25.566Z,99823.02
2018-12-22T10:33:57.152Z,99817.89
2018-12-22T10:36:28.855Z,99819.66
2018-12-22T10:39:01.249Z,99817.16
2018-12-22T10:41:38.380Z,99821.16
2018-12-22T10:44:11.412Z,99822.41
2018-12-22T10:46:42.892Z,99816.39
2018-12-22T10:49:18.598Z,99808.06
2018-12-22T10:51:50.789Z,99819.86
2018-12-22T10:54:22.452Z,99822.52
2018-12-22T10:56:54.228Z,99821.36
2018-12-22T10:59:26.458Z,99821.61
2018-12-22T11:01:59.076Z,99821.27
2018-12-22T11:04:30.918Z,99824.72
2018-12-22T11:07:02.753Z,99830.92
2018-12-22T11:09:35.242Z,99828.39
2018-12-22T11:12:11.787Z,99823.61
2018-12-22T11:14:47.550Z,99826.93
2018-12-22T11:17:24.086Z,99830.31
2018-12-22T11:19:56.007Z,99822.00
2018-12-22T11:22:27.769Z,99821.29
2018-12-22T11:25:01.021Z,99822.11
2018-12-22T11:27:34.023Z,99818.75
2018-12-22T11:30:10.050Z,99825.06
2018-12-22T11:32:42.880Z,99823.97
2018-12-22T11:35:17.330Z,99826.63
2018-12-22T11:37:49.301Z,99835.91
2018-12-22T11:40:21.488Z,99832.44
2018-12-22T11:42:54.155Z,99831.38
2018-12-22T11:45:27.166Z,99831.08
2018-12-22T11:49:11.644Z,99841.25
2018-12-22T11:51:43.618Z,99843.01
2018-12-22T11:54:15.176Z,99841.66
2018-12-22T11:56:47.416Z,99841.12
2018-12-22T11:59:19.989Z,99848.58
2018-12-22T12:01:51.899Z,99847.63
2018-12-22T12:04:24.243Z,99849.08
2018-12-22T12:06:56.430Z,99842.95
2018-12-22T12:09:29.649Z,99849.18
2018-12-22T12:12:03.827Z,99854.92
2018-12-22T12:14:36.627Z,99855.88
2018-12-22T12:22:48.482Z,99860.72
2018-12-22T12:25:20.567Z,99861.16
2018-12-22T12:27:56.843Z,99862.60
2018-12-22T12:30:31.343Z,99864.22
2018-12-22T12:33:03.423Z,99870.38
2018-12-22T12:35:35.056Z,99867.64
2018-12-22T12:38:07.230Z,99867.44
2018-12-22T12:40:41.938Z,99874.25
2018-12-22T12:43:14.026Z,99865.39
2018-12-22T12:45:46.564Z,99864.54
2018-12-22T12:48:18.407Z,99868.41
2018-12-22T12:50:50.002Z,99862.14
2018-12-22T12:53:22.338Z,99862.83
2018-12-22T12:55:57.396Z,99866.08
2018-12-22T12:58:29.269Z,99864.72
2018-12-22T13:01:02.091Z,99863.59
2018-12-22T13:03:33.830Z,99861.88
2018-12-22T13:06:13.450Z,99861.88
2018-12-22T13:08:45.177Z,99858.20
2018-12-22T13:11:17.468Z,99869.81
2018-12-22T13:13:53.727Z,99868.14
2018-12-22T13:16:25.997Z,99874.36
2018-12-22T13:18:58.324Z,99867.44
2018-12-22T13:21:30.243Z,99872.09
2018-12-22T13:24:02.568Z,99876.73
2018-12-22T13:26:37.311Z,99883.39
2018-12-22T13:29:08.924Z,99878.22
2018-12-22T13:31:41.619Z,99885.45
2018-12-22T13:34:13.653Z,99882.25
2018-12-22T13:36:49.964Z,99892.78
2018-12-22T13:39:26.617Z,99896.02
2018-12-22T13:42:00.134Z,99894.04
2018-12-22T13:44:32.438Z,99897.73
2018-12-22T13:47:05.228Z,99898.78
2018-12-22T13:49:38.468Z,99897.62
2018-12-22T13:52:10.592Z,99903.34
2018-12-22T13:54:42.428Z,99907.48
2018-12-22T13:57:14.516Z,99905.59
2018-12-22T13:59:46.841Z,99920.74
2018-12-22T14:02:19.439Z,99918.89
2018-12-22T14:04:52.267Z,99920.47
2018-12-22T14:07:23.784Z,99930.20
2018-12-22T14:10:07.242Z,99922.14
2018-12-22T14:12:39.116Z,99930.51
2018-12-22T14:15:14.369Z,99929.75
2018-12-22T14:17:54.981Z,99932.86
2018-12-22T14:20:30.525Z,99936.00
2018-12-22T14:24:22.684Z,99939.48
2018-12-22T14:27:01.253Z,99943.88
2018-12-22T14:29:35.180Z,99940.14
2018-12-22T14:32:06.969Z,99950.84
2018-12-22T14:34:51.114Z,99944.86
2018-12-22T14:37:22.621Z,99950.52
2018-12-22T14:39:54.824Z,99951.94
2018-12-22T14:45:04.796Z,99965.70
2018-12-22T14:47:38.378Z,99963.95
2018-12-22T14:50:12.418Z,99971.84
2018-12-22T14:52:49.385Z,99976.23
2018-12-22T14:55:21.177Z,99971.17
2018-12-22T14:57:55.981Z,99976.61
2018-12-22T15:00:27.741Z,99971.33
2018-12-22T15:03:01.697Z,99976.34
2018-12-22T15:05:33.095Z,99980.69
2018-12-22T15:08:04.940Z,99983.86
2018-12-22T15:10:37.860Z,99978.39
2018-12-22T15:13:14.460Z,99980.02
2018-12-22T15:15:50.893Z,99977.05
2018-12-22T15:18:23.908Z,99970.28
2018-12-22T15:20:56.778Z,99973.55
2018-12-22T15:23:28.682Z,99972.63
2018-12-22T15:26:01.214Z,99985.63
2018-12-22T15:28:32.896Z,99977.05
2018-12-22T15:31:04.711Z,99990.20
2018-12-22T15:33:36.338Z,99992.91
2018-12-22T15:36:08.936Z,99992.58
2018-12-22T15:38:41.085Z,99990.48
2018-12-22T15:41:12.732Z,99989.59
2018-12-22T15:43:45.033Z,99984.88
2018-12-22T15:46:17.118Z,99988.88
2018-12-22T15:48:49.230Z,99989.36
2018-12-22T15:51:22.117Z,99983.17
2018-12-22T15:53:54.000Z,99990.97
2018-12-22T15:56:25.811Z,99986.91
2018-12-22T15:58:57.693Z,99993.92
2018-12-22T16:01:29.566Z,99992.76
2018-12-22T16:04:01.462Z,99996.01
2018-12-22T16:06:38.521Z,99993.45
2018-12-22T16:09:16.295Z,99993.23
2018-12-22T16:11:48.461Z,99992.97
2018-12-22T16:14:19.974Z,99994.98
2018-12-22T16:16:51.589Z,99992.86
2018-12-22T16:19:23.120Z,99997.75
2018-12-22T16:21:55.390Z,99989.55
2018-12-22T16:24:28.067Z,99990.02
2018-12-22T16:27:00.441Z,99994.67
2018-12-22T16:29:36.959Z,99997.92
2018-12-22T16:32:09.115Z,99989.06
2018-12-22T16:34:40.974Z,99995.19
2018-12-22T16:37:12.702Z,99994.09
2018-12-22T16:39:44.371Z,99994.27
2018-12-22T16:42:15.976Z,99997.82
2018-12-22T16:44:52.477Z,99990.60
2018-12-22T16:47:24.004Z,99993.23
2018-12-22T16:50:01.717Z,99992.34
2018-12-22T16:52:33.732Z,99989.75
2018-12-22T16:55:06.977Z,99989.72
2018-12-22T16:57:38.896Z,99984.55
2018-12-22T17:00:14.892Z,99980.54
2018-12-22T17:03:10.708Z,99982.34
2018-12-22T17:05:42.311Z,99980.98
2018-12-22T17:08:15.251Z,99989.19
2018-12-22T17:10:49.986Z,99990.14
2018-12-22T17:13:22.953Z,99988.53
2018-12-22T17:15:58.523Z,99991.51
2018-12-22T17:18:31.405Z,99992.12
2018-12-22T17:21:13.154Z,99996.23
2018-12-22T17:23:54.937Z,99995.63
2018-12-22T17:26:28.793Z,99998.99
2018-12-22T17:29:01.944Z,99998.27
2018-12-22T17:31:33.744Z,99994.47
2018-12-22T17:34:07.490Z,100001.94
2018-12-22T17:36:39.696Z,99996.81
2018-12-22T17:39:13.546Z,99990.85
2018-12-22T17:41:46.305Z,99986.98
2018-12-22T17:44:18.280Z,99987.75
2018-12-22T17:46:50.338Z,99978.28
2018-12-22T17:49:21.957Z,99983.31
2018-12-22T17:51:59.534Z,99974.86
2018-12-22T17:54:31.544Z,99974.00
2018-12-22T17:57:03.236Z,99981.59
2018-12-22T17:59:35.211Z,99977.36
2018-12-22T18:02:07.379Z,99980.20
2018-12-22T18:04:39.097Z,99983.31
2018-12-22T18:07:10.940Z,99979.06
2018-12-22T18:09:42.443Z,99977.89
2018-12-22T18:12:14.634Z,99983.94
2018-12-22T18:14:46.175Z,99984.41
2018-12-22T18:17:18.023Z,99976.08
2018-12-22T18:19:49.539Z,99976.56
2018-12-22T18:22:21.061Z,99974.76
2018-12-22T18:24:53.649Z,99972.19
2018-12-22T18:27:25.443Z,99968.30
2018-12-22T18:29:56.815Z,99968.42
2018-12-22T18:32:28.456Z,99965.18
2018-12-22T18:35:00.934Z,99959.07
2018-12-22T18:37:32.545Z,99954.30
2018-12-22T18:40:04.601Z,99950.46
2018-12-22T18:42:36.401Z,99945.33
2018-12-22T18:45:09.381Z,99940.95
2018-12-22T18:47:41.316Z,99941.88
2018-12-22T18:50:23.229Z,99935.59
2018-12-22T18:52:59.115Z,99933.00
2018-12-22T18:55:31.540Z,99938.90
2018-12-22T18:58:05.045Z,99934.80
2018-12-22T19:00:40.815Z,99932.44
2018-12-22T19:03:12.953Z,99932.03
2018-12-22T19:05:44.989Z,99928.98
2018-12-22T19:08:17.836Z,99922.94
2018-12-22T19:10:55.693Z,99921.83
2018-12-22T19:13:28.357Z,99923.51
2018-12-22T19:15:59.953Z,99922.09
2018-12-22T19:18:32.081Z,99921.83
2018-12-22T19:21:03.751Z,99919.67
2018-12-22T19:23:35.908Z,99924.39
2018-12-22T19:26:08.007Z,99918.47
2018-12-22T19:28:42.606Z,99916.76
2018-12-22T19:31:14.860Z,99924.86
2018-12-22T19:33:53.477Z,99918.06
2018-12-22T19:36:21.183Z,99923.02
2018-12-22T19:41:30.699Z,99913.91
2018-12-22T19:44:02.584Z,99915.67
2018-12-22T19:46:34.663Z,99924.31
2018-12-22T19:49:08.382Z,99926.31
2018-12-22T19:51:39.815Z,99926.25
2018-12-22T19:54:11.763Z,99926.47
2018-12-22T19:56:43.698Z,99921.75
2018-12-22T19:59:15.660Z,99926.49
2018-12-22T20:01:47.184Z,99933.52
2018-12-22T20:04:19.037Z,99930.06
2018-12-22T20:06:50.483Z,99928.47
2018-12-22T20:09:23.369Z,99929.77
2018-12-22T20:11:54.842Z,99926.78
2018-12-22T20:14:26.425Z,99925.78
2018-12-22T20:16:58.088Z,99931.97
2018-12-22T20:19:33.641Z,99930.20
2018-12-22T20:22:05.097Z,99930.63
2018-12-22T20:24:36.758Z,99926.78
2018-12-22T20:27:08.742Z,99922.42
2018-12-22T20:29:40.468Z,99924.28
2018-12-22T20:32:12.030Z,99932.00
2018-12-22T20:34:45.439Z,99935.62
2018-12-22T20:37:16.887Z,99933.31
2018-12-22T20:39:49.921Z,99936.29
2018-12-22T20:42:21.987Z,99934.73
2018-12-22T20:44:54.129Z,99941.80
2018-12-22T20:47:26.719Z,99942.80
2018-12-22T20:50:10.765Z,99942.41
2018-12-22T20:52:42.863Z,99942.41
2018-12-22T20:55:24.008Z,99935.07
2018-12-22T20:57:55.998Z,99936.20
2018-12-22T21:00:27.650Z,99932.91
2018-12-22T21:03:00.905Z,99934.02
2018-12-22T21:05:39.573Z,99933.75
2018-12-22T21:08:11.526Z,99932.45
2018-12-22T21:10:43.373Z,99930.88
2018-12-22T21:13:18.352Z,99924.39
2018-12-22T21:15:49.930Z,99929.01
2018-12-22T21:18:21.501Z,99925.37
2018-12-22T21:20:52.957Z,99922.55
2018-12-22T21:23:29.206Z,99917.34
2018-12-22T21:26:04.645Z,99918.06
2018-12-22T21:28:38.247Z,99920.35
2018-12-22T21:31:10.087Z,99917.76
2018-12-22T21:33:41.601Z,99926.59
2018-12-22T21:36:13.647Z,99929.55
2018-12-22T21:38:45.236Z,99925.42
2018-12-22T21:41:16.931Z,99927.73
2018-12-22T21:43:49.630Z,99929.94
2018-12-22T21:46:25.573Z,99929.64
2018-12-22T21:48:58.037Z,99928.55
2018-12-22T21:51:29.809Z,99926.84
2018-12-22T21:54:01.120Z,99918.11
2018-12-22T21:56:32.861Z,99924.00
2018-12-22T21:59:05.645Z,99915.45
2018-12-22T22:01:38.109Z,99914.40
2018-12-22T22:04:10.325Z,99912.20
2018-12-22T22:06:46.108Z,99913.52
2018-12-22T22:09:19.253Z,99915.88
2018-12-22T22:11:51.502Z,99913.34
2018-12-22T22:14:23.019Z,99907.39
2018-12-22T22:16:54.783Z,99904.28
2018-12-22T22:19:26.460Z,99903.57
2018-12-22T22:21:59.858Z,99905.95
2018-12-22T22:24:32.098Z,99907.27
2018-12-22T22:27:03.982Z,99908.63
2018-12-22T22:29:35.818Z,99901.16
2018-12-22T22:32:09.074Z,99909.13
2018-12-22T22:34:45.588Z,99906.12
2018-12-22T22:37:15.667Z,99907.88
2018-12-22T22:39:51.668Z,99908.98
2018-12-22T22:42:24.166Z,99910.42
2018-12-22T22:44:56.086Z,99915.59
2018-12-22T22:47:28.220Z,99908.83
2018-12-22T22:50:01.007Z,99909.82
2018-12-22T22:52:32.757Z,99905.42
2018-12-22T22:55:04.824Z,99911.31
2018-12-22T22:57:36.480Z,99914.33
2018-12-22T23:00:17.046Z,99906.28
2018-12-22T23:02:48.852Z,99899.95
2018-12-22T23:05:20.285Z,99905.88
2018-12-22T23:07:52.719Z,99907.95
2018-12-22T23:10:28.166Z,99912.84
2018-12-22T23:13:00.030Z,99917.19
2018-12-22T23:15:31.577Z,99920.22
2018-12-22T23:18:03.789Z,99921.52
2018-12-22T23:20:35.406Z,99922.35
2018-12-22T23:23:07.017Z,99919.54
2018-12-22T23:25:38.443Z,99926.05
2018-12-22T23:28:10.249Z,99930.75
2018-12-22T23:30:42.306Z,99930.13
2018-12-22T23:33:14.001Z,99927.30
2018-12-22T23:35:46.734Z,99930.50
2018-12-22T23:38:18.635Z,99927.77
2018-12-22T23:40:50.494Z,99933.91
2018-12-22T23:43:24.111Z,99942.61
2018-12-22T23:46:00.035Z,99944.92
2018-12-22T23:48:31.628Z,99953.44
2018-12-22T23:51:03.762Z,99957.50
2018-12-22T23:53:35.264Z,99952.70
2018-12-22T23:56:09.185Z,99957.97
2018-12-22T23:58:40.951Z,99958.06
